sensor_id;sensor_type;location;lat;lon;timestamp;temperature;humidity
46335;DHT22;32051;48.882;9.210;2022-12-18T10:58:34;1.10;99.90
46335;DHT22;32051;48.882;9.210;2022-12-18T11:01:09;1.00;99.90
46335;DHT22;32051;48.882;9.210;2022-12-18T11:03:36;1.10;99.90
46335;DHT22;32051;48.882;9.210;2022-12-18T11:08:28;1.40;99.90
46335;DHT22;32051;48.882;9.210;2022-12-18T13:20:12;4.40;98.50
46335;DHT22;32051;48.882;9.210;2022-12-18T14:24:46;0.10;99.90
46335;DHT22;32051;48.882;9.210;2022-12-18T14:27:20;-0.20;99.90
46335;DHT22;32051;48.882;9.210;2022-12-18T14:29:46;-0.30;99.90
46335;DHT22;32051;48.882;9.210;2022-12-18T14:32:15;-0.30;99.90
46335;DHT22;32051;48.882;9.210;2022-12-18T14:34:43;-0.40;99.90
46335;DHT22;32051;48.882;9.210;2022-12-18T14:37:09;-0.50;99.90
46335;DHT22;32051;48.882;9.210;2022-12-18T14:59:14;-1.00;99.90
46335;DHT22;32051;48.882;9.210;2022-12-18T15:04:29;-1.30;99.90
46335;DHT22;32051;48.882;9.210;2022-12-18T15:07:03;-1.50;99.90
46335;DHT22;32051;48.882;9.210;2022-12-18T15:11:56;-1.60;99.90
46335;DHT22;32051;48.882;9.210;2022-12-18T15:16:52;-1.80;99.90
46335;DHT22;32051;48.882;9.210;2022-12-18T15:19:18;-1.90;99.90
46335;DHT22;32051;48.882;9.210;2022-12-18T15:21:44;-2.00;99.90
46335;DHT22;32051;48.882;9.210;2022-12-18T15:24:16;-2.10;99.90
46335;DHT22;32051;48.882;9.210;2022-12-18T15:26:43;-2.10;99.90
46335;DHT22;32051;48.882;9.210;2022-12-18T15:29:17;-2.20;99.90
46335;DHT22;32051;48.882;9.210;2022-12-18T15:31:44;-2.20;99.90
46335;DHT22;32051;48.882;9.210;2022-12-18T15:34:12;-2.20;99.90
46335;DHT22;32051;48.882;9.210;2022-12-18T15:36:38;-2.10;99.90
46335;DHT22;32051;48.882;9.210;2022-12-18T15:51:33;-2.30;99.90
46335;DHT22;32051;48.882;9.210;2022-12-18T15:54:01;-2.40;99.90
46335;DHT22;32051;48.882;9.210;2022-12-18T15:56:27;-2.40;99.90
46335;DHT22;32051;48.882;9.210;2022-12-18T16:06:29;-2.80;99.90
46335;DHT22;32051;48.882;9.210;2022-12-18T16:08:55;-2.60;99.90
46335;DHT22;32051;48.882;9.210;2022-12-18T16:11:24;-2.70;99.90
46335;DHT22;32051;48.882;9.210;2022-12-18T16:14:08;-2.70;99.90
46335;DHT22;32051;48.882;9.210;2022-12-18T16:16:37;-2.70;99.90
46335;DHT22;32051;48.882;9.210;2022-12-18T16:19:02;-2.70;99.90
46335;DHT22;32051;48.882;9.210;2022-12-18T16:21:28;-2.70;99.90
46335;DHT22;32051;48.882;9.210;2022-12-18T16:23:53;-2.70;99.90
46335;DHT22;32051;48.882;9.210;2022-12-18T16:26:19;-2.70;99.90
46335;DHT22;32051;48.882;9.210;2022-12-18T16:28:45;-2.70;99.90
46335;DHT22;32051;48.882;9.210;2022-12-18T16:31:10;-2.70;99.90
46335;DHT22;32051;48.882;9.210;2022-12-18T16:33:36;-2.70;99.90
46335;DHT22;32051;48.882;9.210;2022-12-18T16:36:01;-2.80;99.90
46335;DHT22;32051;48.882;9.210;2022-12-18T16:38:28;-2.80;99.90
46335;DHT22;32051;48.882;9.210;2022-12-18T16:40:53;-2.80;99.90
46335;DHT22;32051;48.882;9.210;2022-12-18T16:43:37;-2.80;99.90
46335;DHT22;32051;48.882;9.210;2022-12-18T16:46:03;-2.80;99.90
46335;DHT22;32051;48.882;9.210;2022-12-18T16:48:28;-2.80;99.90
46335;DHT22;32051;48.882;9.210;2022-12-18T16:51:01;-2.80;99.90
46335;DHT22;32051;48.882;9.210;2022-12-18T16:53:27;-2.80;99.90
46335;DHT22;32051;48.882;9.210;2022-12-18T16:55:55;-2.80;99.90
46335;DHT22;32051;48.882;9.210;2022-12-18T16:58:21;-2.80;99.90
46335;DHT22;32051;48.882;9.210;2022-12-18T17:00:47;-2.80;99.90
46335;DHT22;32051;48.882;9.210;2022-12-18T17:03:12;-2.90;99.90
46335;DHT22;32051;48.882;9.210;2022-12-18T17:05:38;-2.90;99.90
46335;DHT22;32051;48.882;9.210;2022-12-18T17:08:04;-2.90;99.90
46335;DHT22;32051;48.882;9.210;2022-12-18T17:10:29;-2.90;99.90
46335;DHT22;32051;48.882;9.210;2022-12-18T17:12:55;-2.90;99.90
46335;DHT22;32051;48.882;9.210;2022-12-18T17:15:20;-2.90;99.90
46335;DHT22;32051;48.882;9.210;2022-12-18T17:17:46;-2.90;99.90
46335;DHT22;32051;48.882;9.210;2022-12-18T17:20:12;-2.90;99.90
46335;DHT22;32051;48.882;9.210;2022-12-18T17:22:37;-2.80;99.90
46335;DHT22;32051;48.882;9.210;2022-12-18T17:25:03;-2.80;99.90
46335;DHT22;32051;48.882;9.210;2022-12-18T17:27:28;-2.80;99.90
46335;DHT22;32051;48.882;9.210;2022-12-18T17:29:54;-2.80;99.90
46335;DHT22;32051;48.882;9.210;2022-12-18T17:32:20;-2.80;99.90
46335;DHT22;32051;48.882;9.210;2022-12-18T17:34:45;-2.80;99.90
46335;DHT22;32051;48.882;9.210;2022-12-18T17:37:11;-2.80;99.90
46335;DHT22;32051;48.882;9.210;2022-12-18T17:39:36;-2.80;99.90
46335;DHT22;32051;48.882;9.210;2022-12-18T17:42:02;-2.80;99.90
46335;DHT22;32051;48.882;9.210;2022-12-18T17:44:28;-2.80;99.90
46335;DHT22;32051;48.882;9.210;2022-12-18T17:46:54;-2.80;99.90
46335;DHT22;32051;48.882;9.210;2022-12-18T17:49:19;-2.70;99.90
46335;DHT22;32051;48.882;9.210;2022-12-18T17:51:46;-2.70;99.90
46335;DHT22;32051;48.882;9.210;2022-12-18T17:54:11;-2.70;99.90
46335;DHT22;32051;48.882;9.210;2022-12-18T17:56:37;-2.70;99.90
46335;DHT22;32051;48.882;9.210;2022-12-18T17:59:03;-2.70;99.90
46335;DHT22;32051;48.882;9.210;2022-12-18T18:01:29;-2.70;99.90
46335;DHT22;32051;48.882;9.210;2022-12-18T18:03:55;-2.70;99.90
46335;DHT22;32051;48.882;9.210;2022-12-18T18:06:21;-2.70;99.90
46335;DHT22;32051;48.882;9.210;2022-12-18T18:08:46;-2.70;99.90
46335;DHT22;32051;48.882;9.210;2022-12-18T18:11:13;-2.70;99.90
46335;DHT22;32051;48.882;9.210;2022-12-18T18:13:58;-2.70;99.90
46335;DHT22;32051;48.882;9.210;2022-12-18T18:16:36;-2.70;99.90
46335;DHT22;32051;48.882;9.210;2022-12-18T18:19:03;-2.70;99.90
46335;DHT22;32051;48.882;9.210;2022-12-18T18:21:29;-2.70;99.90
46335;DHT22;32051;48.882;9.210;2022-12-18T18:23:57;-2.70;99.90
46335;DHT22;32051;48.882;9.210;2022-12-18T18:26:23;-2.70;99.90
46335;DHT22;32051;48.882;9.210;2022-12-18T18:28:48;-2.70;99.90
46335;DHT22;32051;48.882;9.210;2022-12-18T18:31:17;-2.70;99.90
46335;DHT22;32051;48.882;9.210;2022-12-18T18:33:43;-2.70;99.90
46335;DHT22;32051;48.882;9.210;2022-12-18T18:36:09;-2.70;99.90
46335;DHT22;32051;48.882;9.210;2022-12-18T18:38:35;-2.70;99.90
46335;DHT22;32051;48.882;9.210;2022-12-18T18:41:02;-2.80;99.90
46335;DHT22;32051;48.882;9.210;2022-12-18T18:43:27;-2.80;99.90
46335;DHT22;32051;48.882;9.210;2022-12-18T18:45:56;-2.80;99.90
46335;DHT22;32051;48.882;9.210;2022-12-18T18:48:23;-2.80;99.90
46335;DHT22;32051;48.882;9.210;2022-12-18T18:50:58;-2.80;99.90
46335;DHT22;32051;48.882;9.210;2022-12-18T18:53:24;-2.80;99.90
46335;DHT22;32051;48.882;9.210;2022-12-18T18:55:49;-2.80;99.90
46335;DHT22;32051;48.882;9.210;2022-12-18T18:58:15;-2.80;99.90
46335;DHT22;32051;48.882;9.210;2022-12-18T19:00:40;-2.80;99.90
46335;DHT22;32051;48.882;9.210;2022-12-18T19:03:06;-2.80;99.90
46335;DHT22;32051;48.882;9.210;2022-12-18T19:05:32;-2.80;99.90
46335;DHT22;32051;48.882;9.210;2022-12-18T19:07:58;-2.70;99.90
46335;DHT22;32051;48.882;9.210;2022-12-18T19:10:23;-2.80;99.90
46335;DHT22;32051;48.882;9.210;2022-12-18T19:12:49;-2.70;99.90
46335;DHT22;32051;48.882;9.210;2022-12-18T19:15:33;-2.70;99.90
46335;DHT22;32051;48.882;9.210;2022-12-18T19:17:59;-2.70;99.90
46335;DHT22;32051;48.882;9.210;2022-12-18T19:20:25;-2.70;99.90
46335;DHT22;32051;48.882;9.210;2022-12-18T19:22:50;-2.70;99.90
46335;DHT22;32051;48.882;9.210;2022-12-18T19:25:16;-2.70;99.90
46335;DHT22;32051;48.882;9.210;2022-12-18T19:27:42;-2.70;99.90
46335;DHT22;32051;48.882;9.210;2022-12-18T19:30:08;-2.70;99.90
46335;DHT22;32051;48.882;9.210;2022-12-18T19:32:34;-2.70;99.90
46335;DHT22;32051;48.882;9.210;2022-12-18T19:34:59;-2.70;99.90
46335;DHT22;32051;48.882;9.210;2022-12-18T19:37:25;-2.70;99.90
46335;DHT22;32051;48.882;9.210;2022-12-18T19:39:50;-2.70;99.90
46335;DHT22;32051;48.882;9.210;2022-12-18T19:42:16;-2.70;99.90
46335;DHT22;32051;48.882;9.210;2022-12-18T19:44:41;-2.70;99.90
46335;DHT22;32051;48.882;9.210;2022-12-18T19:47:07;-2.70;99.90
46335;DHT22;32051;48.882;9.210;2022-12-18T19:49:32;-2.70;99.90
46335;DHT22;32051;48.882;9.210;2022-12-18T19:51:58;-2.70;99.90
46335;DHT22;32051;48.882;9.210;2022-12-18T19:54:24;-2.60;99.90
46335;DHT22;32051;48.882;9.210;2022-12-18T19:56:49;-2.60;99.90
46335;DHT22;32051;48.882;9.210;2022-12-18T19:59:17;-2.60;99.90
46335;DHT22;32051;48.882;9.210;2022-12-18T20:01:42;-2.60;99.90
46335;DHT22;32051;48.882;9.210;2022-12-18T20:04:08;-2.60;99.90
46335;DHT22;32051;48.882;9.210;2022-12-18T20:06:47;-2.60;99.90
46335;DHT22;32051;48.882;9.210;2022-12-18T20:09:12;-2.60;99.90
46335;DHT22;32051;48.882;9.210;2022-12-18T20:11:38;-2.60;99.90
46335;DHT22;32051;48.882;9.210;2022-12-18T20:14:04;-2.60;99.90
46335;DHT22;32051;48.882;9.210;2022-12-18T20:16:30;-2.60;99.90
46335;DHT22;32051;48.882;9.210;2022-12-18T20:18:56;-2.50;99.90
46335;DHT22;32051;48.882;9.210;2022-12-18T20:21:22;-2.50;99.90
46335;DHT22;32051;48.882;9.210;2022-12-18T20:23:48;-2.50;99.90
46335;DHT22;32051;48.882;9.210;2022-12-18T20:26:13;-2.50;99.90
46335;DHT22;32051;48.882;9.210;2022-12-18T20:28:39;-2.50;99.90
46335;DHT22;32051;48.882;9.210;2022-12-18T20:31:04;-2.50;99.90
46335;DHT22;32051;48.882;9.210;2022-12-18T20:33:32;-2.50;99.90
46335;DHT22;32051;48.882;9.210;2022-12-18T20:36:07;-2.50;99.90
46335;DHT22;32051;48.882;9.210;2022-12-18T20:38:35;-2.50;99.90
46335;DHT22;32051;48.882;9.210;2022-12-18T20:41:06;-2.50;99.90
46335;DHT22;32051;48.882;9.210;2022-12-18T20:43:32;-2.60;99.90
46335;DHT22;32051;48.882;9.210;2022-12-18T20:46:02;-2.50;99.90
46335;DHT22;32051;48.882;9.210;2022-12-18T20:48:27;-2.60;99.90
46335;DHT22;32051;48.882;9.210;2022-12-18T20:51:00;-2.60;99.90
46335;DHT22;32051;48.882;9.210;2022-12-18T20:53:26;-2.60;99.90
46335;DHT22;32051;48.882;9.210;2022-12-18T20:55:51;-2.50;99.90
46335;DHT22;32051;48.882;9.210;2022-12-18T20:58:17;-2.50;99.90
46335;DHT22;32051;48.882;9.210;2022-12-18T21:00:42;-2.50;99.90
46335;DHT22;32051;48.882;9.210;2022-12-18T21:03:08;-2.50;99.90
46335;DHT22;32051;48.882;9.210;2022-12-18T21:05:34;-2.50;99.90
46335;DHT22;32051;48.882;9.210;2022-12-18T21:07:59;-2.40;99.90
46335;DHT22;32051;48.882;9.210;2022-12-18T21:10:25;-2.40;99.90
46335;DHT22;32051;48.882;9.210;2022-12-18T21:12:50;-2.40;99.90
46335;DHT22;32051;48.882;9.210;2022-12-18T21:15:16;-2.40;99.90
46335;DHT22;32051;48.882;9.210;2022-12-18T21:17:42;-2.40;99.90
46335;DHT22;32051;48.882;9.210;2022-12-18T21:20:08;-2.40;99.90
46335;DHT22;32051;48.882;9.210;2022-12-18T21:22:33;-2.40;99.90
46335;DHT22;32051;48.882;9.210;2022-12-18T21:24:59;-2.40;99.90
46335;DHT22;32051;48.882;9.210;2022-12-18T21:27:25;-2.40;99.90
46335;DHT22;32051;48.882;9.210;2022-12-18T21:29:50;-2.40;99.90
46335;DHT22;32051;48.882;9.210;2022-12-18T21:32:16;-2.40;99.90
46335;DHT22;32051;48.882;9.210;2022-12-18T21:34:42;-2.40;99.90
46335;DHT22;32051;48.882;9.210;2022-12-18T21:37:07;-2.40;99.90
46335;DHT22;32051;48.882;9.210;2022-12-18T21:39:33;-2.40;99.90
46335;DHT22;32051;48.882;9.210;2022-12-18T21:41:59;-2.30;99.90
46335;DHT22;32051;48.882;9.210;2022-12-18T21:44:43;-2.30;99.90
46335;DHT22;32051;48.882;9.210;2022-12-18T21:47:11;-2.30;99.90
46335;DHT22;32051;48.882;9.210;2022-12-18T21:49:37;-2.30;99.90
46335;DHT22;32051;48.882;9.210;2022-12-18T21:52:02;-2.20;99.90
46335;DHT22;32051;48.882;9.210;2022-12-18T21:54:28;-2.20;99.90
46335;DHT22;32051;48.882;9.210;2022-12-18T21:56:55;-2.20;99.90
46335;DHT22;32051;48.882;9.210;2022-12-18T21:59:25;-2.10;99.90
46335;DHT22;32051;48.882;9.210;2022-12-18T22:01:51;-2.10;99.90
46335;DHT22;32051;48.882;9.210;2022-12-18T22:04:17;-2.10;99.90
46335;DHT22;32051;48.882;9.210;2022-12-18T22:06:43;-2.10;99.90
46335;DHT22;32051;48.882;9.210;2022-12-18T22:09:10;-2.10;99.90
46335;DHT22;32051;48.882;9.210;2022-12-18T22:11:36;-2.10;99.90
46335;DHT22;32051;48.882;9.210;2022-12-18T22:14:02;-2.10;99.90
46335;DHT22;32051;48.882;9.210;2022-12-18T22:16:27;-2.10;99.90
46335;DHT22;32051;48.882;9.210;2022-12-18T22:18:53;-2.10;99.90
46335;DHT22;32051;48.882;9.210;2022-12-18T22:21:29;-2.10;99.90
46335;DHT22;32051;48.882;9.210;2022-12-18T22:23:58;-2.10;99.90
46335;DHT22;32051;48.882;9.210;2022-12-18T22:26:24;-2.10;99.90
46335;DHT22;32051;48.882;9.210;2022-12-18T22:28:51;-2.10;99.90
46335;DHT22;32051;48.882;9.210;2022-12-18T22:31:35;-2.10;99.90
46335;DHT22;32051;48.882;9.210;2022-12-18T22:34:01;-2.10;99.90
46335;DHT22;32051;48.882;9.210;2022-12-18T22:36:26;-2.10;99.90
46335;DHT22;32051;48.882;9.210;2022-12-18T22:38:52;-2.10;99.90
46335;DHT22;32051;48.882;9.210;2022-12-18T22:41:17;-2.10;99.90
46335;DHT22;32051;48.882;9.210;2022-12-18T22:43:43;-2.00;99.90
46335;DHT22;32051;48.882;9.210;2022-12-18T22:46:11;-2.00;99.90
46335;DHT22;32051;48.882;9.210;2022-12-18T22:48:39;-1.90;99.90
46335;DHT22;32051;48.882;9.210;2022-12-18T22:51:04;-1.90;99.90
46335;DHT22;32051;48.882;9.210;2022-12-18T22:56:02;-1.90;99.90
46335;DHT22;32051;48.882;9.210;2022-12-18T22:58:27;-1.90;99.90
46335;DHT22;32051;48.882;9.210;2022-12-18T23:03:19;-1.80;99.90
46335;DHT22;32051;48.882;9.210;2022-12-18T23:05:44;-1.80;99.90
46335;DHT22;32051;48.882;9.210;2022-12-18T23:08:12;-1.80;99.90
46335;DHT22;32051;48.882;9.210;2022-12-18T23:10:37;-1.70;99.90
46335;DHT22;32051;48.882;9.210;2022-12-18T23:13:03;-1.70;99.90
46335;DHT22;32051;48.882;9.210;2022-12-18T23:15:29;-1.70;99.90
46335;DHT22;32051;48.882;9.210;2022-12-18T23:42:14;-1.30;99.90
46335;DHT22;32051;48.882;9.210;2022-12-18T23:44:39;-1.30;99.90
46335;DHT22;32051;48.882;9.210;2022-12-18T23:47:05;-1.20;99.90
46335;DHT22;32051;48.882;9.210;2022-12-18T23:59:21;-1.20;99.90
